sensor_id;sensor_type;location;lat;lon;timestamp;temperature;humidity
8914;DHT22;4492;48.736;9.092;2023-07-29T00:00:44;15.70;99.90
8914;DHT22;4492;48.736;9.092;2023-07-29T00:03:10;15.70;99.90
8914;DHT22;4492;48.736;9.092;2023-07-29T00:05:36;15.70;99.90
8914;DHT22;4492;48.736;9.092;2023-07-29T00:08:02;15.70;99.90
8914;DHT22;4492;48.736;9.092;2023-07-29T00:10:30;15.70;99.90
8914;DHT22;4492;48.736;9.092;2023-07-29T00:12:56;15.70;99.90
8914;DHT22;4492;48.736;9.092;2023-07-29T00:15:21;15.70;99.90
8914;DHT22;4492;48.736;9.092;2023-07-29T00:17:47;15.70;99.90
8914;DHT22;4492;48.736;9.092;2023-07-29T00:20:12;15.70;99.90
8914;DHT22;4492;48.736;9.092;2023-07-29T00:22:38;15.70;99.90
8914;DHT22;4492;48.736;9.092;2023-07-29T00:25:04;15.70;99.90
8914;DHT22;4492;48.736;9.092;2023-07-29T00:27:29;15.70;99.90
8914;DHT22;4492;48.736;9.092;2023-07-29T00:29:55;15.70;99.90
8914;DHT22;4492;48.736;9.092;2023-07-29T00:32:20;15.70;99.90
8914;DHT22;4492;48.736;9.092;2023-07-29T00:34:46;15.70;99.90
8914;DHT22;4492;48.736;9.092;2023-07-29T00:37:11;15.70;99.90
8914;DHT22;4492;48.736;9.092;2023-07-29T00:39:37;15.70;99.90
8914;DHT22;4492;48.736;9.092;2023-07-29T00:42:04;15.70;99.90
8914;DHT22;4492;48.736;9.092;2023-07-29T00:44:29;15.70;99.90
8914;DHT22;4492;48.736;9.092;2023-07-29T00:46:57;15.70;99.90
8914;DHT22;4492;48.736;9.092;2023-07-29T00:49:23;15.70;99.90
8914;DHT22;4492;48.736;9.092;2023-07-29T00:51:50;15.70;99.90
8914;DHT22;4492;48.736;9.092;2023-07-29T00:54:15;15.70;99.90
8914;DHT22;4492;48.736;9.092;2023-07-29T00:56:41;15.60;99.90
8914;DHT22;4492;48.736;9.092;2023-07-29T00:59:07;15.60;99.90
8914;DHT22;4492;48.736;9.092;2023-07-29T01:01:33;15.70;99.90
8914;DHT22;4492;48.736;9.092;2023-07-29T01:03:59;15.70;99.90
8914;DHT22;4492;48.736;9.092;2023-07-29T01:06:29;15.70;99.90
8914;DHT22;4492;48.736;9.092;2023-07-29T01:09:08;15.70;99.90
8914;DHT22;4492;48.736;9.092;2023-07-29T01:14:34;15.70;99.90
8914;DHT22;4492;48.736;9.092;2023-07-29T01:17:04;15.70;99.90
8914;DHT22;4492;48.736;9.092;2023-07-29T01:19:55;15.70;99.90
8914;DHT22;4492;48.736;9.092;2023-07-29T01:22:21;15.70;99.90
8914;DHT22;4492;48.736;9.092;2023-07-29T01:24:47;15.70;99.90
8914;DHT22;4492;48.736;9.092;2023-07-29T01:27:13;15.70;99.90
8914;DHT22;4492;48.736;9.092;2023-07-29T01:29:39;15.70;99.90
8914;DHT22;4492;48.736;9.092;2023-07-29T01:32:11;15.70;99.90
8914;DHT22;4492;48.736;9.092;2023-07-29T01:34:51;15.70;99.90
8914;DHT22;4492;48.736;9.092;2023-07-29T01:37:25;15.70;99.90
8914;DHT22;4492;48.736;9.092;2023-07-29T01:39:54;15.80;99.90
8914;DHT22;4492;48.736;9.092;2023-07-29T01:42:22;15.80;99.90
8914;DHT22;4492;48.736;9.092;2023-07-29T01:44:48;15.80;99.90
8914;DHT22;4492;48.736;9.092;2023-07-29T01:47:13;15.80;99.90
8914;DHT22;4492;48.736;9.092;2023-07-29T01:49:39;15.80;99.90
8914;DHT22;4492;48.736;9.092;2023-07-29T01:52:04;15.80;99.90
8914;DHT22;4492;48.736;9.092;2023-07-29T01:54:30;15.90;99.90
8914;DHT22;4492;48.736;9.092;2023-07-29T01:56:55;15.80;99.90
8914;DHT22;4492;48.736;9.092;2023-07-29T01:59:21;15.80;99.90
8914;DHT22;4492;48.736;9.092;2023-07-29T02:01:46;15.80;99.90
8914;DHT22;4492;48.736;9.092;2023-07-29T02:04:12;15.80;99.90
8914;DHT22;4492;48.736;9.092;2023-07-29T02:06:37;15.80;99.90
8914;DHT22;4492;48.736;9.092;2023-07-29T02:09:03;15.80;99.90
8914;DHT22;4492;48.736;9.092;2023-07-29T02:11:30;15.70;99.90
8914;DHT22;4492;48.736;9.092;2023-07-29T02:13:55;15.70;99.90
8914;DHT22;4492;48.736;9.092;2023-07-29T02:16:21;15.70;99.90
8914;DHT22;4492;48.736;9.092;2023-07-29T02:18:48;15.70;99.90
8914;DHT22;4492;48.736;9.092;2023-07-29T02:21:15;15.60;99.90
8914;DHT22;4492;48.736;9.092;2023-07-29T02:23:40;15.60;99.90
8914;DHT22;4492;48.736;9.092;2023-07-29T02:26:06;15.60;99.90
8914;DHT22;4492;48.736;9.092;2023-07-29T02:28:31;15.60;99.90
8914;DHT22;4492;48.736;9.092;2023-07-29T02:31:20;15.60;99.90
8914;DHT22;4492;48.736;9.092;2023-07-29T02:33:46;15.60;99.90
8914;DHT22;4492;48.736;9.092;2023-07-29T02:36:12;15.60;99.90
8914;DHT22;4492;48.736;9.092;2023-07-29T02:38:38;15.70;99.90
8914;DHT22;4492;48.736;9.092;2023-07-29T02:41:04;15.70;99.90
8914;DHT22;4492;48.736;9.092;2023-07-29T02:43:29;15.70;99.90
8914;DHT22;4492;48.736;9.092;2023-07-29T02:45:55;15.70;99.90
8914;DHT22;4492;48.736;9.092;2023-07-29T02:48:20;15.70;99.90
8914;DHT22;4492;48.736;9.092;2023-07-29T02:50:46;15.70;99.90
8914;DHT22;4492;48.736;9.092;2023-07-29T02:53:11;15.70;99.90
8914;DHT22;4492;48.736;9.092;2023-07-29T02:55:40;15.80;99.90
8914;DHT22;4492;48.736;9.092;2023-07-29T02:58:06;15.70;99.90
8914;DHT22;4492;48.736;9.092;2023-07-29T03:00:32;15.70;99.90
8914;DHT22;4492;48.736;9.092;2023-07-29T03:02:58;15.70;99.90
8914;DHT22;4492;48.736;9.092;2023-07-29T03:05:24;15.70;99.90
8914;DHT22;4492;48.736;9.092;2023-07-29T03:07:52;15.80;99.90
8914;DHT22;4492;48.736;9.092;2023-07-29T03:10:17;15.70;99.90
8914;DHT22;4492;48.736;9.092;2023-07-29T03:12:43;15.70;99.90
8914;DHT22;4492;48.736;9.092;2023-07-29T03:15:09;15.70;99.90
8914;DHT22;4492;48.736;9.092;2023-07-29T03:17:34;15.70;99.90
8914;DHT22;4492;48.736;9.092;2023-07-29T03:20:00;15.70;99.90
8914;DHT22;4492;48.736;9.092;2023-07-29T03:22:25;15.70;99.90
8914;DHT22;4492;48.736;9.092;2023-07-29T03:24:51;15.70;99.90
8914;DHT22;4492;48.736;9.092;2023-07-29T03:27:16;15.70;99.90
8914;DHT22;4492;48.736;9.092;2023-07-29T03:29:42;15.70;99.90
8914;DHT22;4492;48.736;9.092;2023-07-29T03:32:07;15.70;99.90
8914;DHT22;4492;48.736;9.092;2023-07-29T03:34:33;15.80;99.90
8914;DHT22;4492;48.736;9.092;2023-07-29T03:37:00;15.80;99.90
8914;DHT22;4492;48.736;9.092;2023-07-29T03:39:26;15.80;99.90
8914;DHT22;4492;48.736;9.092;2023-07-29T03:41:52;15.80;99.90
8914;DHT22;4492;48.736;9.092;2023-07-29T03:44:17;15.80;99.90
8914;DHT22;4492;48.736;9.092;2023-07-29T03:46:44;15.90;99.90
8914;DHT22;4492;48.736;9.092;2023-07-29T03:49:09;15.90;99.90
8914;DHT22;4492;48.736;9.092;2023-07-29T03:51:35;15.90;99.90
8914;DHT22;4492;48.736;9.092;2023-07-29T03:54:01;15.90;99.90
8914;DHT22;4492;48.736;9.092;2023-07-29T03:56:26;15.90;99.90
8914;DHT22;4492;48.736;9.092;2023-07-29T03:58:52;16.00;99.90
8914;DHT22;4492;48.736;9.092;2023-07-29T04:01:18;16.00;99.90
8914;DHT22;4492;48.736;9.092;2023-07-29T04:03:47;16.00;99.90
8914;DHT22;4492;48.736;9.092;2023-07-29T04:06:12;16.00;99.90
8914;DHT22;4492;48.736;9.092;2023-07-29T04:08:38;16.00;99.90
8914;DHT22;4492;48.736;9.092;2023-07-29T04:11:03;16.00;99.90
8914;DHT22;4492;48.736;9.092;2023-07-29T04:13:29;16.00;99.90
8914;DHT22;4492;48.736;9.092;2023-07-29T04:15:54;16.00;99.90
8914;DHT22;4492;48.736;9.092;2023-07-29T04:18:20;16.00;99.90
8914;DHT22;4492;48.736;9.092;2023-07-29T04:20:46;16.00;99.90
8914;DHT22;4492;48.736;9.092;2023-07-29T04:23:11;16.00;99.90
8914;DHT22;4492;48.736;9.092;2023-07-29T04:25:37;16.10;99.90
8914;DHT22;4492;48.736;9.092;2023-07-29T04:28:02;16.10;99.90
8914;DHT22;4492;48.736;9.092;2023-07-29T04:30:30;16.10;99.90
8914;DHT22;4492;48.736;9.092;2023-07-29T04:32:55;16.10;99.90
8914;DHT22;4492;48.736;9.092;2023-07-29T04:35:21;16.10;99.90
8914;DHT22;4492;48.736;9.092;2023-07-29T04:37:46;16.10;99.90
8914;DHT22;4492;48.736;9.092;2023-07-29T04:40:13;16.10;99.90
8914;DHT22;4492;48.736;9.092;2023-07-29T04:42:39;16.10;99.90
8914;DHT22;4492;48.736;9.092;2023-07-29T04:45:05;16.10;99.90
8914;DHT22;4492;48.736;9.092;2023-07-29T04:47:30;16.10;99.90
8914;DHT22;4492;48.736;9.092;2023-07-29T04:49:56;16.10;99.90
8914;DHT22;4492;48.736;9.092;2023-07-29T04:52:21;16.10;99.90
8914;DHT22;4492;48.736;9.092;2023-07-29T04:54:47;16.10;99.90
8914;DHT22;4492;48.736;9.092;2023-07-29T04:57:13;16.10;99.90
8914;DHT22;4492;48.736;9.092;2023-07-29T04:59:38;16.10;99.90
8914;DHT22;4492;48.736;9.092;2023-07-29T05:02:04;16.10;99.90
8914;DHT22;4492;48.736;9.092;2023-07-29T05:04:29;16.10;99.90
8914;DHT22;4492;48.736;9.092;2023-07-29T05:06:55;16.10;99.90
8914;DHT22;4492;48.736;9.092;2023-07-29T05:09:20;16.10;99.90
8914;DHT22;4492;48.736;9.092;2023-07-29T05:11:46;16.10;99.90
8914;DHT22;4492;48.736;9.092;2023-07-29T05:14:17;16.10;99.90
8914;DHT22;4492;48.736;9.092;2023-07-29T05:16:43;16.10;99.90
8914;DHT22;4492;48.736;9.092;2023-07-29T05:19:08;16.20;99.90
8914;DHT22;4492;48.736;9.092;2023-07-29T05:21:34;16.30;99.90
8914;DHT22;4492;48.736;9.092;2023-07-29T05:24:00;16.30;99.90
8914;DHT22;4492;48.736;9.092;2023-07-29T05:26:25;16.30;99.90
8914;DHT22;4492;48.736;9.092;2023-07-29T05:28:51;16.40;99.90
8914;DHT22;4492;48.736;9.092;2023-07-29T05:31:17;16.40;99.90
8914;DHT22;4492;48.736;9.092;2023-07-29T05:33:43;16.40;99.90
8914;DHT22;4492;48.736;9.092;2023-07-29T05:36:08;16.50;99.90
8914;DHT22;4492;48.736;9.092;2023-07-29T05:38:34;16.60;99.90
8914;DHT22;4492;48.736;9.092;2023-07-29T05:40:59;16.70;99.90
8914;DHT22;4492;48.736;9.092;2023-07-29T05:43:26;16.80;99.90
8914;DHT22;4492;48.736;9.092;2023-07-29T05:45:52;16.90;99.90
8914;DHT22;4492;48.736;9.092;2023-07-29T05:48:19;17.00;99.90
8914;DHT22;4492;48.736;9.092;2023-07-29T05:50:45;17.10;99.90
8914;DHT22;4492;48.736;9.092;2023-07-29T05:53:10;17.30;99.90
8914;DHT22;4492;48.736;9.092;2023-07-29T05:55:36;17.40;99.90
8914;DHT22;4492;48.736;9.092;2023-07-29T05:58:01;17.50;99.90
8914;DHT22;4492;48.736;9.092;2023-07-29T06:00:27;17.60;99.90
8914;DHT22;4492;48.736;9.092;2023-07-29T06:02:52;17.70;99.90
8914;DHT22;4492;48.736;9.092;2023-07-29T06:05:18;17.90;99.90
8914;DHT22;4492;48.736;9.092;2023-07-29T06:07:43;17.90;99.90
8914;DHT22;4492;48.736;9.092;2023-07-29T06:10:12;18.10;99.90
8914;DHT22;4492;48.736;9.092;2023-07-29T06:12:38;18.10;99.90
8914;DHT22;4492;48.736;9.092;2023-07-29T06:15:04;18.30;99.90
8914;DHT22;4492;48.736;9.092;2023-07-29T06:17:30;18.40;99.90
8914;DHT22;4492;48.736;9.092;2023-07-29T06:19:55;18.50;99.90
8914;DHT22;4492;48.736;9.092;2023-07-29T06:22:21;18.60;99.90
8914;DHT22;4492;48.736;9.092;2023-07-29T06:24:46;18.70;99.90
8914;DHT22;4492;48.736;9.092;2023-07-29T06:27:12;18.80;99.90
8914;DHT22;4492;48.736;9.092;2023-07-29T06:29:37;18.70;99.90
8914;DHT22;4492;48.736;9.092;2023-07-29T06:32:03;18.60;99.90
8914;DHT22;4492;48.736;9.092;2023-07-29T06:34:28;18.60;99.90
8914;DHT22;4492;48.736;9.092;2023-07-29T06:36:54;18.50;99.90
8914;DHT22;4492;48.736;9.092;2023-07-29T06:39:19;18.40;99.90
8914;DHT22;4492;48.736;9.092;2023-07-29T06:41:45;18.40;99.90
8914;DHT22;4492;48.736;9.092;2023-07-29T06:44:11;18.40;99.90
8914;DHT22;4492;48.736;9.092;2023-07-29T06:46:36;18.30;99.90
8914;DHT22;4492;48.736;9.092;2023-07-29T06:49:02;18.40;99.90
8914;DHT22;4492;48.736;9.092;2023-07-29T06:51:27;18.40;99.90
8914;DHT22;4492;48.736;9.092;2023-07-29T06:53:57;18.30;99.90
8914;DHT22;4492;48.736;9.092;2023-07-29T06:56:23;18.20;99.90
8914;DHT22;4492;48.736;9.092;2023-07-29T06:58:48;18.10;99.90
8914;DHT22;4492;48.736;9.092;2023-07-29T07:01:14;18.00;99.90
8914;DHT22;4492;48.736;9.092;2023-07-29T07:03:39;17.90;99.90
8914;DHT22;4492;48.736;9.092;2023-07-29T07:06:05;17.80;99.90
8914;DHT22;4492;48.736;9.092;2023-07-29T07:08:31;17.70;99.90
8914;DHT22;4492;48.736;9.092;2023-07-29T07:10:56;17.60;99.90
8914;DHT22;4492;48.736;9.092;2023-07-29T07:13:22;17.60;99.90
8914;DHT22;4492;48.736;9.092;2023-07-29T07:15:47;17.50;99.90
8914;DHT22;4492;48.736;9.092;2023-07-29T07:18:13;17.50;99.90
8914;DHT22;4492;48.736;9.092;2023-07-29T07:20:38;17.50;99.90
8914;DHT22;4492;48.736;9.092;2023-07-29T07:23:04;17.50;99.90
8914;DHT22;4492;48.736;9.092;2023-07-29T07:25:31;17.50;99.90
8914;DHT22;4492;48.736;9.092;2023-07-29T07:27:56;17.50;99.90
8914;DHT22;4492;48.736;9.092;2023-07-29T07:30:22;17.60;99.90
8914;DHT22;4492;48.736;9.092;2023-07-29T07:32:47;17.70;99.90
8914;DHT22;4492;48.736;9.092;2023-07-29T07:35:13;17.80;99.90
8914;DHT22;4492;48.736;9.092;2023-07-29T07:37:39;17.80;99.90
8914;DHT22;4492;48.736;9.092;2023-07-29T07:40:05;17.90;99.90
8914;DHT22;4492;48.736;9.092;2023-07-29T07:42:30;18.00;99.90
8914;DHT22;4492;48.736;9.092;2023-07-29T07:44:56;18.10;99.90
8914;DHT22;4492;48.736;9.092;2023-07-29T07:47:21;18.20;99.90
8914;DHT22;4492;48.736;9.092;2023-07-29T07:49:47;18.20;99.90
8914;DHT22;4492;48.736;9.092;2023-07-29T07:52:14;18.30;99.90
8914;DHT22;4492;48.736;9.092;2023-07-29T07:54:40;18.30;99.90
8914;DHT22;4492;48.736;9.092;2023-07-29T07:57:05;18.40;99.90
8914;DHT22;4492;48.736;9.092;2023-07-29T07:59:31;18.50;99.90
8914;DHT22;4492;48.736;9.092;2023-07-29T08:01:56;18.50;99.90
8914;DHT22;4492;48.736;9.092;2023-07-29T08:04:22;18.60;99.90
8914;DHT22;4492;48.736;9.092;2023-07-29T08:06:47;18.80;99.90
8914;DHT22;4492;48.736;9.092;2023-07-29T08:09:13;18.90;99.90
8914;DHT22;4492;48.736;9.092;2023-07-29T08:11:38;19.00;99.90
8914;DHT22;4492;48.736;9.092;2023-07-29T08:14:04;19.20;99.90
8914;DHT22;4492;48.736;9.092;2023-07-29T08:16:29;19.40;99.90
8914;DHT22;4492;48.736;9.092;2023-07-29T08:18:55;19.60;99.90
8914;DHT22;4492;48.736;9.092;2023-07-29T08:21:20;19.80;99.90
8914;DHT22;4492;48.736;9.092;2023-07-29T08:23:46;19.90;99.90
8914;DHT22;4492;48.736;9.092;2023-07-29T08:26:11;19.80;99.90
8914;DHT22;4492;48.736;9.092;2023-07-29T08:28:38;19.80;99.90
8914;DHT22;4492;48.736;9.092;2023-07-29T08:31:05;19.90;99.90
8914;DHT22;4492;48.736;9.092;2023-07-29T08:33:31;20.10;99.90
8914;DHT22;4492;48.736;9.092;2023-07-29T08:35:59;20.20;99.90
8914;DHT22;4492;48.736;9.092;2023-07-29T08:38:24;20.30;99.90
8914;DHT22;4492;48.736;9.092;2023-07-29T08:41:10;20.50;99.90
8914;DHT22;4492;48.736;9.092;2023-07-29T08:43:39;20.60;99.90
8914;DHT22;4492;48.736;9.092;2023-07-29T08:46:06;20.70;99.90
8914;DHT22;4492;48.736;9.092;2023-07-29T08:48:42;20.80;99.90
8914;DHT22;4492;48.736;9.092;2023-07-29T08:51:09;20.90;99.90
8914;DHT22;4492;48.736;9.092;2023-07-29T08:53:36;21.00;99.90
8914;DHT22;4492;48.736;9.092;2023-07-29T08:56:01;21.30;99.90
8914;DHT22;4492;48.736;9.092;2023-07-29T08:58:27;21.60;99.90
8914;DHT22;4492;48.736;9.092;2023-07-29T09:00:53;21.80;99.90
8914;DHT22;4492;48.736;9.092;2023-07-29T09:03:20;21.90;99.90
8914;DHT22;4492;48.736;9.092;2023-07-29T09:05:46;21.90;99.90
8914;DHT22;4492;48.736;9.092;2023-07-29T09:08:12;22.00;99.90
8914;DHT22;4492;48.736;9.092;2023-07-29T09:10:37;21.90;99.90
8914;DHT22;4492;48.736;9.092;2023-07-29T09:13:04;21.90;99.90
8914;DHT22;4492;48.736;9.092;2023-07-29T09:15:37;22.00;99.90
8914;DHT22;4492;48.736;9.092;2023-07-29T09:18:18;22.10;99.90
8914;DHT22;4492;48.736;9.092;2023-07-29T09:20:46;22.20;99.90
8914;DHT22;4492;48.736;9.092;2023-07-29T09:23:12;22.20;99.90
8914;DHT22;4492;48.736;9.092;2023-07-29T09:25:39;22.50;99.90
8914;DHT22;4492;48.736;9.092;2023-07-29T09:28:10;22.70;99.90
8914;DHT22;4492;48.736;9.092;2023-07-29T09:30:40;22.90;99.90
8914;DHT22;4492;48.736;9.092;2023-07-29T09:33:06;23.00;99.90
8914;DHT22;4492;48.736;9.092;2023-07-29T09:35:36;22.80;99.90
8914;DHT22;4492;48.736;9.092;2023-07-29T09:38:02;22.80;99.90
8914;DHT22;4492;48.736;9.092;2023-07-29T09:40:37;22.80;99.90
8914;DHT22;4492;48.736;9.092;2023-07-29T09:43:04;23.10;99.90
8914;DHT22;4492;48.736;9.092;2023-07-29T09:45:30;23.30;99.90
8914;DHT22;4492;48.736;9.092;2023-07-29T09:47:57;23.60;99.90
8914;DHT22;4492;48.736;9.092;2023-07-29T09:50:27;23.80;99.90
8914;DHT22;4492;48.736;9.092;2023-07-29T09:52:54;23.90;99.90
8914;DHT22;4492;48.736;9.092;2023-07-29T09:55:22;24.00;99.90
8914;DHT22;4492;48.736;9.092;2023-07-29T09:57:58;24.10;99.90
8914;DHT22;4492;48.736;9.092;2023-07-29T10:00:30;24.20;99.90
8914;DHT22;4492;48.736;9.092;2023-07-29T10:02:57;24.40;99.90
8914;DHT22;4492;48.736;9.092;2023-07-29T10:05:25;24.50;99.90
8914;DHT22;4492;48.736;9.092;2023-07-29T10:07:51;24.60;99.90
8914;DHT22;4492;48.736;9.092;2023-07-29T10:10:17;24.80;99.90
8914;DHT22;4492;48.736;9.092;2023-07-29T10:12:43;25.00;99.90
8914;DHT22;4492;48.736;9.092;2023-07-29T10:15:09;25.20;99.90
8914;DHT22;4492;48.736;9.092;2023-07-29T10:17:36;25.70;99.90
8914;DHT22;4492;48.736;9.092;2023-07-29T10:20:06;25.80;99.90
8914;DHT22;4492;48.736;9.092;2023-07-29T10:22:42;25.60;99.90
8914;DHT22;4492;48.736;9.092;2023-07-29T10:25:13;25.90;99.40
8914;DHT22;4492;48.736;9.092;2023-07-29T10:27:49;25.80;98.40
8914;DHT22;4492;48.736;9.092;2023-07-29T10:30:15;25.30;99.70
8914;DHT22;4492;48.736;9.092;2023-07-29T10:32:45;25.40;99.90
8914;DHT22;4492;48.736;9.092;2023-07-29T10:35:14;25.60;98.00
8914;DHT22;4492;48.736;9.092;2023-07-29T10:37:40;25.50;99.00
8914;DHT22;4492;48.736;9.092;2023-07-29T10:40:09;25.30;99.00
8914;DHT22;4492;48.736;9.092;2023-07-29T10:42:35;24.80;98.30
8914;DHT22;4492;48.736;9.092;2023-07-29T10:45:17;24.40;99.90
8914;DHT22;4492;48.736;9.092;2023-07-29T10:47:43;24.50;99.90
8914;DHT22;4492;48.736;9.092;2023-07-29T10:50:17;24.70;99.60
8914;DHT22;4492;48.736;9.092;2023-07-29T10:52:43;24.60;99.80
8914;DHT22;4492;48.736;9.092;2023-07-29T10:55:24;24.60;99.90
8914;DHT22;4492;48.736;9.092;2023-07-29T10:57:51;24.80;99.50
8914;DHT22;4492;48.736;9.092;2023-07-29T11:00:19;25.00;99.10
8914;DHT22;4492;48.736;9.092;2023-07-29T11:03:01;25.00;99.90
8914;DHT22;4492;48.736;9.092;2023-07-29T11:05:27;24.80;99.50
8914;DHT22;4492;48.736;9.092;2023-07-29T11:08:28;24.80;99.90
8914;DHT22;4492;48.736;9.092;2023-07-29T11:11:08;24.90;98.30
8914;DHT22;4492;48.736;9.092;2023-07-29T11:13:37;24.80;99.20
8914;DHT22;4492;48.736;9.092;2023-07-29T11:16:04;25.00;99.00
8914;DHT22;4492;48.736;9.092;2023-07-29T11:18:31;25.40;98.60
8914;DHT22;4492;48.736;9.092;2023-07-29T11:20:58;25.60;97.20
8914;DHT22;4492;48.736;9.092;2023-07-29T11:23:28;25.60;97.50
8914;DHT22;4492;48.736;9.092;2023-07-29T11:25:54;25.60;96.50
8914;DHT22;4492;48.736;9.092;2023-07-29T11:28:20;25.60;97.20
8914;DHT22;4492;48.736;9.092;2023-07-29T11:30:47;25.60;97.40
8914;DHT22;4492;48.736;9.092;2023-07-29T11:33:12;25.70;98.20
8914;DHT22;4492;48.736;9.092;2023-07-29T11:35:38;25.90;97.70
8914;DHT22;4492;48.736;9.092;2023-07-29T11:38:04;26.10;97.30
8914;DHT22;4492;48.736;9.092;2023-07-29T11:40:29;26.30;95.80
8914;DHT22;4492;48.736;9.092;2023-07-29T11:42:55;26.30;96.30
8914;DHT22;4492;48.736;9.092;2023-07-29T11:45:22;26.20;97.00
8914;DHT22;4492;48.736;9.092;2023-07-29T11:47:48;26.10;96.80
8914;DHT22;4492;48.736;9.092;2023-07-29T11:50:14;26.20;96.60
8914;DHT22;4492;48.736;9.092;2023-07-29T11:52:44;26.10;95.50
8914;DHT22;4492;48.736;9.092;2023-07-29T11:55:12;26.10;94.60
8914;DHT22;4492;48.736;9.092;2023-07-29T11:57:38;26.00;95.60
8914;DHT22;4492;48.736;9.092;2023-07-29T12:00:08;26.30;94.40
8914;DHT22;4492;48.736;9.092;2023-07-29T12:02:38;26.30;94.80
8914;DHT22;4492;48.736;9.092;2023-07-29T12:05:05;26.30;94.10
8914;DHT22;4492;48.736;9.092;2023-07-29T12:07:32;26.20;95.70
8914;DHT22;4492;48.736;9.092;2023-07-29T12:09:59;26.40;96.20
8914;DHT22;4492;48.736;9.092;2023-07-29T12:12:24;26.50;94.20
8914;DHT22;4492;48.736;9.092;2023-07-29T12:14:50;26.70;94.30
8914;DHT22;4492;48.736;9.092;2023-07-29T12:17:15;26.70;94.10
8914;DHT22;4492;48.736;9.092;2023-07-29T12:19:42;26.80;91.60
8914;DHT22;4492;48.736;9.092;2023-07-29T12:22:09;26.90;89.70
8914;DHT22;4492;48.736;9.092;2023-07-29T12:24:37;26.80;91.90
8914;DHT22;4492;48.736;9.092;2023-07-29T12:27:03;27.00;92.80
8914;DHT22;4492;48.736;9.092;2023-07-29T12:29:29;27.20;94.10
8914;DHT22;4492;48.736;9.092;2023-07-29T12:32:02;27.60;91.90
8914;DHT22;4492;48.736;9.092;2023-07-29T12:34:29;27.60;90.90
8914;DHT22;4492;48.736;9.092;2023-07-29T12:36:56;27.60;90.30
8914;DHT22;4492;48.736;9.092;2023-07-29T12:39:30;27.50;88.70
8914;DHT22;4492;48.736;9.092;2023-07-29T12:41:58;27.30;88.90
8914;DHT22;4492;48.736;9.092;2023-07-29T12:44:25;27.00;90.60
8914;DHT22;4492;48.736;9.092;2023-07-29T12:46:51;27.10;90.80
8914;DHT22;4492;48.736;9.092;2023-07-29T12:49:17;27.40;89.90
8914;DHT22;4492;48.736;9.092;2023-07-29T12:51:42;27.30;88.20
8914;DHT22;4492;48.736;9.092;2023-07-29T12:54:08;26.90;89.10
8914;DHT22;4492;48.736;9.092;2023-07-29T12:56:34;26.80;88.50
8914;DHT22;4492;48.736;9.092;2023-07-29T12:59:01;26.60;90.00
8914;DHT22;4492;48.736;9.092;2023-07-29T13:01:27;26.60;89.10
8914;DHT22;4492;48.736;9.092;2023-07-29T13:03:54;26.70;90.00
8914;DHT22;4492;48.736;9.092;2023-07-29T13:06:20;26.70;89.40
8914;DHT22;4492;48.736;9.092;2023-07-29T13:08:46;26.90;88.40
8914;DHT22;4492;48.736;9.092;2023-07-29T13:11:12;27.10;86.50
8914;DHT22;4492;48.736;9.092;2023-07-29T13:13:37;27.10;86.90
8914;DHT22;4492;48.736;9.092;2023-07-29T13:16:03;27.00;87.80
8914;DHT22;4492;48.736;9.092;2023-07-29T13:18:29;26.90;88.30
8914;DHT22;4492;48.736;9.092;2023-07-29T13:20:55;27.00;85.60
8914;DHT22;4492;48.736;9.092;2023-07-29T13:23:21;26.90;87.60
8914;DHT22;4492;48.736;9.092;2023-07-29T13:25:47;26.90;85.90
8914;DHT22;4492;48.736;9.092;2023-07-29T13:28:12;26.70;87.30
8914;DHT22;4492;48.736;9.092;2023-07-29T13:30:41;26.50;87.70
8914;DHT22;4492;48.736;9.092;2023-07-29T13:33:07;26.60;87.80
8914;DHT22;4492;48.736;9.092;2023-07-29T13:35:33;26.70;85.50
8914;DHT22;4492;48.736;9.092;2023-07-29T13:37:59;26.60;86.60
8914;DHT22;4492;48.736;9.092;2023-07-29T13:40:24;26.40;86.20
8914;DHT22;4492;48.736;9.092;2023-07-29T13:42:50;26.30;87.90
8914;DHT22;4492;48.736;9.092;2023-07-29T13:45:15;26.40;88.30
8914;DHT22;4492;48.736;9.092;2023-07-29T13:47:41;26.50;86.60
8914;DHT22;4492;48.736;9.092;2023-07-29T13:50:06;26.40;86.30
8914;DHT22;4492;48.736;9.092;2023-07-29T13:52:36;26.50;87.30
8914;DHT22;4492;48.736;9.092;2023-07-29T13:55:02;26.30;90.20
8914;DHT22;4492;48.736;9.092;2023-07-29T13:57:28;26.40;88.70
8914;DHT22;4492;48.736;9.092;2023-07-29T13:59:53;26.40;86.90
8914;DHT22;4492;48.736;9.092;2023-07-29T14:02:19;26.60;86.80
8914;DHT22;4492;48.736;9.092;2023-07-29T14:04:44;26.50;85.60
8914;DHT22;4492;48.736;9.092;2023-07-29T14:07:10;26.50;86.90
8914;DHT22;4492;48.736;9.092;2023-07-29T14:09:35;26.30;87.70
8914;DHT22;4492;48.736;9.092;2023-07-29T14:12:01;26.20;86.80
8914;DHT22;4492;48.736;9.092;2023-07-29T14:14:26;26.00;89.00
8914;DHT22;4492;48.736;9.092;2023-07-29T14:16:52;25.70;88.80
8914;DHT22;4492;48.736;9.092;2023-07-29T14:19:18;25.50;90.00
8914;DHT22;4492;48.736;9.092;2023-07-29T14:21:43;25.60;90.50
8914;DHT22;4492;48.736;9.092;2023-07-29T14:24:09;25.50;90.90
8914;DHT22;4492;48.736;9.092;2023-07-29T14:26:34;25.30;91.00
8914;DHT22;4492;48.736;9.092;2023-07-29T14:29:00;25.20;91.10
8914;DHT22;4492;48.736;9.092;2023-07-29T14:31:25;25.00;92.10
8914;DHT22;4492;48.736;9.092;2023-07-29T14:33:50;25.00;92.10
8914;DHT22;4492;48.736;9.092;2023-07-29T14:36:16;24.90;91.80
8914;DHT22;4492;48.736;9.092;2023-07-29T14:38:42;25.00;91.90
8914;DHT22;4492;48.736;9.092;2023-07-29T14:41:08;25.10;92.20
8914;DHT22;4492;48.736;9.092;2023-07-29T14:43:34;25.10;92.80
8914;DHT22;4492;48.736;9.092;2023-07-29T14:46:00;25.00;91.50
8914;DHT22;4492;48.736;9.092;2023-07-29T14:48:26;25.00;91.60
8914;DHT22;4492;48.736;9.092;2023-07-29T14:50:51;25.00;91.90
8914;DHT22;4492;48.736;9.092;2023-07-29T14:53:17;25.00;91.20
8914;DHT22;4492;48.736;9.092;2023-07-29T14:55:42;24.90;91.20
8914;DHT22;4492;48.736;9.092;2023-07-29T14:58:08;24.80;91.40
8914;DHT22;4492;48.736;9.092;2023-07-29T15:00:33;25.00;91.30
8914;DHT22;4492;48.736;9.092;2023-07-29T15:02:59;25.10;92.00
8914;DHT22;4492;48.736;9.092;2023-07-29T15:05:24;25.20;91.60
8914;DHT22;4492;48.736;9.092;2023-07-29T15:07:50;25.30;90.50
8914;DHT22;4492;48.736;9.092;2023-07-29T15:10:16;25.10;91.20
8914;DHT22;4492;48.736;9.092;2023-07-29T15:12:42;25.00;90.50
8914;DHT22;4492;48.736;9.092;2023-07-29T15:15:08;24.90;90.80
8914;DHT22;4492;48.736;9.092;2023-07-29T15:17:34;25.10;91.00
8914;DHT22;4492;48.736;9.092;2023-07-29T15:20:00;25.10;90.70
8914;DHT22;4492;48.736;9.092;2023-07-29T15:22:25;25.10;90.50
8914;DHT22;4492;48.736;9.092;2023-07-29T15:24:51;25.10;91.30
8914;DHT22;4492;48.736;9.092;2023-07-29T15:27:16;25.20;90.60
8914;DHT22;4492;48.736;9.092;2023-07-29T15:29:42;25.30;90.80
8914;DHT22;4492;48.736;9.092;2023-07-29T15:32:07;25.50;90.30
8914;DHT22;4492;48.736;9.092;2023-07-29T15:34:33;25.50;90.10
8914;DHT22;4492;48.736;9.092;2023-07-29T15:36:58;25.70;90.90
8914;DHT22;4492;48.736;9.092;2023-07-29T15:39:24;25.90;89.50
8914;DHT22;4492;48.736;9.092;2023-07-29T15:41:50;25.80;89.20
8914;DHT22;4492;48.736;9.092;2023-07-29T15:44:16;25.60;89.70
8914;DHT22;4492;48.736;9.092;2023-07-29T15:46:42;25.50;89.00
8914;DHT22;4492;48.736;9.092;2023-07-29T15:49:08;25.50;89.80
8914;DHT22;4492;48.736;9.092;2023-07-29T15:51:35;25.60;89.10
8914;DHT22;4492;48.736;9.092;2023-07-29T15:54:00;25.60;89.10
8914;DHT22;4492;48.736;9.092;2023-07-29T15:56:27;25.60;89.20
8914;DHT22;4492;48.736;9.092;2023-07-29T15:58:53;25.80;89.10
8914;DHT22;4492;48.736;9.092;2023-07-29T16:01:19;25.90;90.60